sensor_id;sensor_type;location;lat;lon;timestamp;P1;durP1;ratioP1;P2;durP2;ratioP2
50495;SDS011;38806;51.554;5.704;2024-03-25T00:00:34;21.30;;;9.65;;
50495;SDS011;38806;51.554;5.704;2024-03-25T00:02:34;22.88;;;8.13;;
50495;SDS011;38806;51.554;5.704;2024-03-25T00:04:35;21.10;;;7.25;;
50495;SDS011;38806;51.554;5.704;2024-03-25T00:06:35;25.30;;;7.65;;
50495;SDS011;38806;51.554;5.704;2024-03-25T00:08:35;18.88;;;6.57;;
50495;SDS011;38806;51.554;5.704;2024-03-25T00:10:36;27.25;;;7.00;;
50495;SDS011;38806;51.554;5.704;2024-03-25T00:12:37;19.13;;;7.35;;
50495;SDS011;38806;51.554;5.704;2024-03-25T00:14:37;22.40;;;6.82;;
50495;SDS011;38806;51.554;5.704;2024-03-25T00:16:37;14.07;;;5.60;;
50495;SDS011;38806;51.554;5.704;2024-03-25T00:18:37;22.88;;;6.82;;
50495;SDS011;38806;51.554;5.704;2024-03-25T00:20:38;18.70;;;6.47;;
50495;SDS011;38806;51.554;5.704;2024-03-25T00:22:38;18.83;;;6.93;;
50495;SDS011;38806;51.554;5.704;2024-03-25T00:24:38;21.33;;;6.18;;
50495;SDS011;38806;51.554;5.704;2024-03-25T00:26:38;15.23;;;6.25;;
50495;SDS011;38806;51.554;5.704;2024-03-25T00:28:38;21.17;;;6.97;;
50495;SDS011;38806;51.554;5.704;2024-03-25T00:30:39;20.55;;;8.38;;
50495;SDS011;38806;51.554;5.704;2024-03-25T00:32:39;20.10;;;7.60;;
50495;SDS011;38806;51.554;5.704;2024-03-25T00:34:39;17.42;;;5.97;;
50495;SDS011;38806;51.554;5.704;2024-03-25T00:36:39;22.77;;;7.63;;
50495;SDS011;38806;51.554;5.704;2024-03-25T00:38:40;27.65;;;9.00;;
50495;SDS011;38806;51.554;5.704;2024-03-25T00:40:40;27.90;;;7.30;;
50495;SDS011;38806;51.554;5.704;2024-03-25T00:42:40;35.88;;;9.77;;
50495;SDS011;38806;51.554;5.704;2024-03-25T00:44:40;25.70;;;7.35;;
50495;SDS011;38806;51.554;5.704;2024-03-25T00:46:40;27.98;;;7.43;;
50495;SDS011;38806;51.554;5.704;2024-03-25T00:48:41;17.00;;;5.95;;
50495;SDS011;38806;51.554;5.704;2024-03-25T00:50:42;26.15;;;6.47;;
50495;SDS011;38806;51.554;5.704;2024-03-25T00:52:43;29.02;;;7.65;;
50495;SDS011;38806;51.554;5.704;2024-03-25T00:54:43;24.35;;;6.53;;
50495;SDS011;38806;51.554;5.704;2024-03-25T00:56:43;25.77;;;6.53;;
50495;SDS011;38806;51.554;5.704;2024-03-25T00:58:44;24.88;;;7.38;;
50495;SDS011;38806;51.554;5.704;2024-03-25T01:00:46;17.52;;;6.43;;
50495;SDS011;38806;51.554;5.704;2024-03-25T01:02:46;20.00;;;6.85;;
50495;SDS011;38806;51.554;5.704;2024-03-25T01:04:46;25.95;;;7.35;;
50495;SDS011;38806;51.554;5.704;2024-03-25T01:06:47;19.88;;;7.60;;
50495;SDS011;38806;51.554;5.704;2024-03-25T01:08:47;26.05;;;6.60;;
50495;SDS011;38806;51.554;5.704;2024-03-25T01:10:47;19.17;;;6.82;;
50495;SDS011;38806;51.554;5.704;2024-03-25T01:12:47;29.90;;;10.93;;
50495;SDS011;38806;51.554;5.704;2024-03-25T01:14:47;17.83;;;5.93;;
50495;SDS011;38806;51.554;5.704;2024-03-25T01:16:48;34.63;;;9.38;;
50495;SDS011;38806;51.554;5.704;2024-03-25T01:18:48;16.20;;;5.40;;
50495;SDS011;38806;51.554;5.704;2024-03-25T01:20:48;17.80;;;7.10;;
50495;SDS011;38806;51.554;5.704;2024-03-25T01:22:49;17.02;;;6.78;;
50495;SDS011;38806;51.554;5.704;2024-03-25T01:24:50;23.25;;;7.20;;
50495;SDS011;38806;51.554;5.704;2024-03-25T01:26:50;24.38;;;8.32;;
50495;SDS011;38806;51.554;5.704;2024-03-25T01:28:50;21.33;;;7.40;;
50495;SDS011;38806;51.554;5.704;2024-03-25T01:30:50;23.20;;;7.40;;
50495;SDS011;38806;51.554;5.704;2024-03-25T01:32:50;22.90;;;6.97;;
50495;SDS011;38806;51.554;5.704;2024-03-25T01:34:51;25.95;;;8.60;;
50495;SDS011;38806;51.554;5.704;2024-03-25T01:36:51;25.73;;;5.82;;
50495;SDS011;38806;51.554;5.704;2024-03-25T01:38:52;26.98;;;7.28;;
50495;SDS011;38806;51.554;5.704;2024-03-25T01:40:52;21.88;;;7.03;;
50495;SDS011;38806;51.554;5.704;2024-03-25T01:42:56;23.33;;;6.30;;
50495;SDS011;38806;51.554;5.704;2024-03-25T01:44:56;14.73;;;5.82;;
50495;SDS011;38806;51.554;5.704;2024-03-25T01:46:57;16.80;;;5.55;;
50495;SDS011;38806;51.554;5.704;2024-03-25T01:48:57;22.23;;;6.22;;
50495;SDS011;38806;51.554;5.704;2024-03-25T01:50:58;23.60;;;8.00;;
50495;SDS011;38806;51.554;5.704;2024-03-25T01:52:58;19.02;;;7.10;;
50495;SDS011;38806;51.554;5.704;2024-03-25T01:54:59;23.17;;;7.10;;
50495;SDS011;38806;51.554;5.704;2024-03-25T01:57:00;25.15;;;7.38;;
50495;SDS011;38806;51.554;5.704;2024-03-25T01:59:01;27.35;;;7.50;;
50495;SDS011;38806;51.554;5.704;2024-03-25T02:01:01;24.33;;;9.00;;
50495;SDS011;38806;51.554;5.704;2024-03-25T02:03:01;24.58;;;8.32;;
50495;SDS011;38806;51.554;5.704;2024-03-25T02:05:02;19.90;;;8.13;;
50495;SDS011;38806;51.554;5.704;2024-03-25T02:07:03;26.20;;;7.90;;
50495;SDS011;38806;51.554;5.704;2024-03-25T02:09:03;35.38;;;8.18;;
50495;SDS011;38806;51.554;5.704;2024-03-25T02:11:04;23.65;;;7.10;;
50495;SDS011;38806;51.554;5.704;2024-03-25T02:13:05;18.80;;;6.38;;
50495;SDS011;38806;51.554;5.704;2024-03-25T02:15:06;21.67;;;8.07;;
50495;SDS011;38806;51.554;5.704;2024-03-25T02:17:06;29.85;;;6.47;;
50495;SDS011;38806;51.554;5.704;2024-03-25T02:19:07;19.27;;;8.80;;
50495;SDS011;38806;51.554;5.704;2024-03-25T02:21:10;12.95;;;5.70;;
50495;SDS011;38806;51.554;5.704;2024-03-25T02:23:11;32.53;;;5.93;;
50495;SDS011;38806;51.554;5.704;2024-03-25T02:25:12;25.52;;;8.55;;
50495;SDS011;38806;51.554;5.704;2024-03-25T02:27:14;24.02;;;7.43;;
50495;SDS011;38806;51.554;5.704;2024-03-25T02:29:14;25.70;;;6.63;;
50495;SDS011;38806;51.554;5.704;2024-03-25T02:31:14;21.52;;;7.55;;
50495;SDS011;38806;51.554;5.704;2024-03-25T02:33:15;22.27;;;7.13;;
50495;SDS011;38806;51.554;5.704;2024-03-25T02:35:15;31.08;;;8.57;;
50495;SDS011;38806;51.554;5.704;2024-03-25T02:37:17;18.33;;;7.43;;
50495;SDS011;38806;51.554;5.704;2024-03-25T02:39:17;20.08;;;5.78;;
50495;SDS011;38806;51.554;5.704;2024-03-25T02:41:18;20.42;;;7.65;;
50495;SDS011;38806;51.554;5.704;2024-03-25T02:43:18;25.15;;;7.40;;
50495;SDS011;38806;51.554;5.704;2024-03-25T02:45:21;19.20;;;7.07;;
50495;SDS011;38806;51.554;5.704;2024-03-25T02:47:21;19.17;;;7.90;;
50495;SDS011;38806;51.554;5.704;2024-03-25T02:49:21;25.52;;;7.97;;
50495;SDS011;38806;51.554;5.704;2024-03-25T02:51:22;36.00;;;8.20;;
50495;SDS011;38806;51.554;5.704;2024-03-25T02:53:22;21.23;;;6.47;;
50495;SDS011;38806;51.554;5.704;2024-03-25T02:55:22;17.35;;;6.63;;
50495;SDS011;38806;51.554;5.704;2024-03-25T02:57:22;26.40;;;9.40;;
50495;SDS011;38806;51.554;5.704;2024-03-25T02:59:22;20.48;;;6.75;;
50495;SDS011;38806;51.554;5.704;2024-03-25T03:01:22;23.58;;;9.45;;
50495;SDS011;38806;51.554;5.704;2024-03-25T03:03:23;18.65;;;6.63;;
50495;SDS011;38806;51.554;5.704;2024-03-25T03:05:23;20.23;;;6.82;;
50495;SDS011;38806;51.554;5.704;2024-03-25T03:07:23;26.48;;;6.85;;
50495;SDS011;38806;51.554;5.704;2024-03-25T03:09:23;17.40;;;5.78;;
50495;SDS011;38806;51.554;5.704;2024-03-25T03:11:23;16.05;;;5.50;;
50495;SDS011;38806;51.554;5.704;2024-03-25T03:13:23;28.05;;;6.90;;
50495;SDS011;38806;51.554;5.704;2024-03-25T03:15:24;23.65;;;7.03;;
50495;SDS011;38806;51.554;5.704;2024-03-25T03:17:24;14.88;;;6.28;;
50495;SDS011;38806;51.554;5.704;2024-03-25T03:19:27;21.25;;;7.68;;
50495;SDS011;38806;51.554;5.704;2024-03-25T03:21:28;16.85;;;6.32;;
50495;SDS011;38806;51.554;5.704;2024-03-25T03:23:29;26.30;;;9.27;;
50495;SDS011;38806;51.554;5.704;2024-03-25T03:25:30;19.13;;;6.43;;
50495;SDS011;38806;51.554;5.704;2024-03-25T03:27:31;25.52;;;6.38;;
50495;SDS011;38806;51.554;5.704;2024-03-25T03:29:31;14.85;;;5.60;;
50495;SDS011;38806;51.554;5.704;2024-03-25T03:31:31;15.98;;;5.53;;
50495;SDS011;38806;51.554;5.704;2024-03-25T03:33:31;17.17;;;5.72;;
50495;SDS011;38806;51.554;5.704;2024-03-25T03:35:35;22.67;;;5.78;;
50495;SDS011;38806;51.554;5.704;2024-03-25T03:37:35;24.98;;;8.50;;
50495;SDS011;38806;51.554;5.704;2024-03-25T03:39:35;15.82;;;4.68;;
50495;SDS011;38806;51.554;5.704;2024-03-25T03:41:35;17.45;;;5.28;;
50495;SDS011;38806;51.554;5.704;2024-03-25T03:43:36;16.90;;;5.47;;
50495;SDS011;38806;51.554;5.704;2024-03-25T03:45:36;18.33;;;4.72;;
50495;SDS011;38806;51.554;5.704;2024-03-25T03:47:36;16.45;;;4.72;;
50495;SDS011;38806;51.554;5.704;2024-03-25T03:49:36;25.80;;;6.80;;
50495;SDS011;38806;51.554;5.704;2024-03-25T03:51:36;16.48;;;6.57;;
50495;SDS011;38806;51.554;5.704;2024-03-25T03:53:36;17.67;;;3.63;;
50495;SDS011;38806;51.554;5.704;2024-03-25T03:55:37;13.90;;;5.72;;
50495;SDS011;38806;51.554;5.704;2024-03-25T03:57:37;17.55;;;6.13;;
50495;SDS011;38806;51.554;5.704;2024-03-25T03:59:37;19.67;;;6.40;;
50495;SDS011;38806;51.554;5.704;2024-03-25T04:01:37;12.27;;;4.47;;
50495;SDS011;38806;51.554;5.704;2024-03-25T04:03:38;14.15;;;5.78;;
50495;SDS011;38806;51.554;5.704;2024-03-25T04:05:38;13.52;;;5.05;;
50495;SDS011;38806;51.554;5.704;2024-03-25T04:07:38;19.50;;;5.68;;
50495;SDS011;38806;51.554;5.704;2024-03-25T04:09:39;11.02;;;5.10;;
50495;SDS011;38806;51.554;5.704;2024-03-25T04:11:39;13.40;;;5.60;;
50495;SDS011;38806;51.554;5.704;2024-03-25T04:13:39;20.08;;;6.13;;
50495;SDS011;38806;51.554;5.704;2024-03-25T04:15:39;17.73;;;6.38;;
50495;SDS011;38806;51.554;5.704;2024-03-25T04:17:40;23.45;;;6.53;;
50495;SDS011;38806;51.554;5.704;2024-03-25T04:19:40;18.02;;;6.88;;
50495;SDS011;38806;51.554;5.704;2024-03-25T04:21:41;25.90;;;7.05;;
50495;SDS011;38806;51.554;5.704;2024-03-25T04:23:41;15.45;;;6.60;;
50495;SDS011;38806;51.554;5.704;2024-03-25T04:25:43;16.60;;;5.50;;
50495;SDS011;38806;51.554;5.704;2024-03-25T04:27:43;21.23;;;7.00;;
50495;SDS011;38806;51.554;5.704;2024-03-25T04:29:43;15.30;;;4.78;;
50495;SDS011;38806;51.554;5.704;2024-03-25T04:31:44;19.70;;;5.60;;
50495;SDS011;38806;51.554;5.704;2024-03-25T04:33:44;16.67;;;6.80;;
50495;SDS011;38806;51.554;5.704;2024-03-25T04:35:45;19.98;;;8.80;;
50495;SDS011;38806;51.554;5.704;2024-03-25T04:37:45;22.13;;;7.60;;
50495;SDS011;38806;51.554;5.704;2024-03-25T04:39:45;19.58;;;8.40;;
50495;SDS011;38806;51.554;5.704;2024-03-25T04:41:45;16.98;;;6.60;;
50495;SDS011;38806;51.554;5.704;2024-03-25T04:43:46;17.60;;;7.00;;
50495;SDS011;38806;51.554;5.704;2024-03-25T04:45:46;21.52;;;7.82;;
50495;SDS011;38806;51.554;5.704;2024-03-25T04:47:46;17.33;;;9.02;;
50495;SDS011;38806;51.554;5.704;2024-03-25T04:49:46;25.10;;;9.80;;
50495;SDS011;38806;51.554;5.704;2024-03-25T04:51:46;26.30;;;11.40;;
50495;SDS011;38806;51.554;5.704;2024-03-25T04:53:47;21.77;;;11.77;;
50495;SDS011;38806;51.554;5.704;2024-03-25T04:55:47;19.80;;;9.63;;
50495;SDS011;38806;51.554;5.704;2024-03-25T04:57:47;23.48;;;10.25;;
50495;SDS011;38806;51.554;5.704;2024-03-25T04:59:48;27.67;;;10.07;;
50495;SDS011;38806;51.554;5.704;2024-03-25T05:01:48;32.60;;;11.00;;
50495;SDS011;38806;51.554;5.704;2024-03-25T05:03:48;21.63;;;10.45;;
50495;SDS011;38806;51.554;5.704;2024-03-25T05:05:48;25.98;;;11.30;;
50495;SDS011;38806;51.554;5.704;2024-03-25T05:07:48;19.33;;;10.77;;
50495;SDS011;38806;51.554;5.704;2024-03-25T05:09:49;28.95;;;10.25;;
50495;SDS011;38806;51.554;5.704;2024-03-25T05:11:49;25.67;;;11.48;;
50495;SDS011;38806;51.554;5.704;2024-03-25T05:13:49;23.55;;;12.27;;
50495;SDS011;38806;51.554;5.704;2024-03-25T05:15:50;34.25;;;16.02;;
50495;SDS011;38806;51.554;5.704;2024-03-25T05:17:50;27.58;;;13.07;;
50495;SDS011;38806;51.554;5.704;2024-03-25T05:19:50;23.30;;;12.00;;
50495;SDS011;38806;51.554;5.704;2024-03-25T05:21:51;32.40;;;15.30;;
50495;SDS011;38806;51.554;5.704;2024-03-25T05:23:51;34.38;;;16.38;;
50495;SDS011;38806;51.554;5.704;2024-03-25T05:25:51;44.40;;;18.33;;
50495;SDS011;38806;51.554;5.704;2024-03-25T05:27:51;34.30;;;16.13;;
50495;SDS011;38806;51.554;5.704;2024-03-25T05:29:51;40.30;;;15.85;;
50495;SDS011;38806;51.554;5.704;2024-03-25T05:32:01;36.60;;;17.40;;
50495;SDS011;38806;51.554;5.704;2024-03-25T05:34:01;30.15;;;16.25;;
50495;SDS011;38806;51.554;5.704;2024-03-25T05:36:02;42.90;;;15.07;;
50495;SDS011;38806;51.554;5.704;2024-03-25T05:38:03;27.05;;;13.85;;
50495;SDS011;38806;51.554;5.704;2024-03-25T05:40:03;24.92;;;14.20;;
50495;SDS011;38806;51.554;5.704;2024-03-25T05:42:04;26.15;;;13.93;;
50495;SDS011;38806;51.554;5.704;2024-03-25T05:44:04;26.67;;;12.82;;
50495;SDS011;38806;51.554;5.704;2024-03-25T05:46:04;29.88;;;15.80;;
50495;SDS011;38806;51.554;5.704;2024-03-25T05:48:04;35.42;;;17.33;;
50495;SDS011;38806;51.554;5.704;2024-03-25T05:50:05;30.50;;;14.68;;
50495;SDS011;38806;51.554;5.704;2024-03-25T05:52:05;32.38;;;16.92;;
50495;SDS011;38806;51.554;5.704;2024-03-25T05:54:05;28.67;;;15.32;;
50495;SDS011;38806;51.554;5.704;2024-03-25T05:56:06;34.13;;;16.73;;
50495;SDS011;38806;51.554;5.704;2024-03-25T05:58:06;38.90;;;18.33;;
50495;SDS011;38806;51.554;5.704;2024-03-25T06:00:08;32.03;;;16.33;;
50495;SDS011;38806;51.554;5.704;2024-03-25T06:02:08;30.35;;;17.73;;
50495;SDS011;38806;51.554;5.704;2024-03-25T06:04:08;32.50;;;17.77;;
50495;SDS011;38806;51.554;5.704;2024-03-25T06:06:09;33.72;;;16.45;;
50495;SDS011;38806;51.554;5.704;2024-03-25T06:08:09;36.60;;;16.90;;
50495;SDS011;38806;51.554;5.704;2024-03-25T06:10:18;33.30;;;17.23;;
50495;SDS011;38806;51.554;5.704;2024-03-25T06:12:18;27.10;;;15.90;;
50495;SDS011;38806;51.554;5.704;2024-03-25T06:14:18;34.55;;;16.05;;
50495;SDS011;38806;51.554;5.704;2024-03-25T06:16:18;37.13;;;18.23;;
50495;SDS011;38806;51.554;5.704;2024-03-25T06:18:19;30.80;;;16.15;;
50495;SDS011;38806;51.554;5.704;2024-03-25T06:20:19;27.75;;;17.00;;
50495;SDS011;38806;51.554;5.704;2024-03-25T06:22:19;31.60;;;17.25;;
50495;SDS011;38806;51.554;5.704;2024-03-25T06:24:19;36.42;;;15.82;;
50495;SDS011;38806;51.554;5.704;2024-03-25T06:26:19;34.13;;;14.98;;
50495;SDS011;38806;51.554;5.704;2024-03-25T06:28:20;27.60;;;15.25;;
50495;SDS011;38806;51.554;5.704;2024-03-25T06:30:20;31.83;;;16.83;;
50495;SDS011;38806;51.554;5.704;2024-03-25T06:32:39;29.10;;;16.77;;
50495;SDS011;38806;51.554;5.704;2024-03-25T06:34:58;35.78;;;19.13;;
50495;SDS011;38806;51.554;5.704;2024-03-25T06:37:01;37.63;;;17.00;;
50495;SDS011;38806;51.554;5.704;2024-03-25T06:39:01;33.13;;;18.25;;
50495;SDS011;38806;51.554;5.704;2024-03-25T06:41:02;38.92;;;19.23;;
50495;SDS011;38806;51.554;5.704;2024-03-25T06:43:03;37.30;;;18.45;;
50495;SDS011;38806;51.554;5.704;2024-03-25T06:45:03;38.20;;;16.20;;
50495;SDS011;38806;51.554;5.704;2024-03-25T06:47:03;30.13;;;16.85;;
50495;SDS011;38806;51.554;5.704;2024-03-25T06:49:04;36.05;;;20.30;;
50495;SDS011;38806;51.554;5.704;2024-03-25T06:51:04;36.28;;;19.52;;
50495;SDS011;38806;51.554;5.704;2024-03-25T06:53:05;37.67;;;19.55;;
50495;SDS011;38806;51.554;5.704;2024-03-25T06:55:05;31.30;;;16.38;;
50495;SDS011;38806;51.554;5.704;2024-03-25T06:57:05;30.48;;;18.17;;
50495;SDS011;38806;51.554;5.704;2024-03-25T06:59:05;35.65;;;18.92;;
50495;SDS011;38806;51.554;5.704;2024-03-25T07:01:09;36.33;;;19.52;;
50495;SDS011;38806;51.554;5.704;2024-03-25T07:03:12;32.70;;;18.73;;
50495;SDS011;38806;51.554;5.704;2024-03-25T07:05:12;33.13;;;16.02;;
50495;SDS011;38806;51.554;5.704;2024-03-25T07:07:12;31.00;;;16.38;;
50495;SDS011;38806;51.554;5.704;2024-03-25T07:09:12;35.03;;;19.08;;
50495;SDS011;38806;51.554;5.704;2024-03-25T07:11:12;34.63;;;21.33;;
50495;SDS011;38806;51.554;5.704;2024-03-25T07:13:13;36.67;;;20.60;;
50495;SDS011;38806;51.554;5.704;2024-03-25T07:15:13;31.48;;;18.20;;
50495;SDS011;38806;51.554;5.704;2024-03-25T07:17:13;33.05;;;19.30;;
50495;SDS011;38806;51.554;5.704;2024-03-25T07:19:14;44.70;;;21.27;;
50495;SDS011;38806;51.554;5.704;2024-03-25T07:21:14;33.30;;;20.35;;
50495;SDS011;38806;51.554;5.704;2024-03-25T07:23:14;36.92;;;19.33;;
50495;SDS011;38806;51.554;5.704;2024-03-25T07:25:14;29.55;;;17.70;;
50495;SDS011;38806;51.554;5.704;2024-03-25T07:27:14;35.50;;;19.13;;
50495;SDS011;38806;51.554;5.704;2024-03-25T07:29:16;35.55;;;18.27;;
50495;SDS011;38806;51.554;5.704;2024-03-25T07:31:17;28.95;;;19.63;;
50495;SDS011;38806;51.554;5.704;2024-03-25T07:33:17;37.10;;;20.15;;
50495;SDS011;38806;51.554;5.704;2024-03-25T07:35:18;32.88;;;19.10;;
50495;SDS011;38806;51.554;5.704;2024-03-25T07:37:18;33.72;;;17.63;;
50495;SDS011;38806;51.554;5.704;2024-03-25T07:39:18;31.25;;;16.92;;
50495;SDS011;38806;51.554;5.704;2024-03-25T07:41:19;27.20;;;17.52;;
50495;SDS011;38806;51.554;5.704;2024-03-25T07:43:19;30.83;;;19.05;;
50495;SDS011;38806;51.554;5.704;2024-03-25T07:45:19;32.97;;;17.10;;
50495;SDS011;38806;51.554;5.704;2024-03-25T07:47:19;26.38;;;17.23;;
50495;SDS011;38806;51.554;5.704;2024-03-25T07:49:19;30.25;;;16.20;;
50495;SDS011;38806;51.554;5.704;2024-03-25T07:51:20;30.02;;;14.93;;
50495;SDS011;38806;51.554;5.704;2024-03-25T07:53:20;22.00;;;13.88;;
50495;SDS011;38806;51.554;5.704;2024-03-25T07:55:20;27.90;;;14.73;;
50495;SDS011;38806;51.554;5.704;2024-03-25T07:57:21;26.08;;;13.85;;
50495;SDS011;38806;51.554;5.704;2024-03-25T07:59:21;32.08;;;14.85;;
50495;SDS011;38806;51.554;5.704;2024-03-25T08:01:21;26.45;;;14.90;;
50495;SDS011;38806;51.554;5.704;2024-03-25T08:03:21;26.20;;;13.48;;
50495;SDS011;38806;51.554;5.704;2024-03-25T08:05:23;25.55;;;14.18;;
50495;SDS011;38806;51.554;5.704;2024-03-25T08:07:23;23.55;;;13.68;;
50495;SDS011;38806;51.554;5.704;2024-03-25T08:09:24;27.80;;;14.48;;
50495;SDS011;38806;51.554;5.704;2024-03-25T08:11:24;22.48;;;13.13;;
50495;SDS011;38806;51.554;5.704;2024-03-25T08:13:25;21.88;;;12.95;;
50495;SDS011;38806;51.554;5.704;2024-03-25T08:15:27;29.20;;;15.43;;
50495;SDS011;38806;51.554;5.704;2024-03-25T08:17:27;22.90;;;13.15;;
50495;SDS011;38806;51.554;5.704;2024-03-25T08:19:27;25.30;;;12.80;;
50495;SDS011;38806;51.554;5.704;2024-03-25T08:21:27;27.13;;;14.27;;
50495;SDS011;38806;51.554;5.704;2024-03-25T08:23:28;24.40;;;13.90;;
50495;SDS011;38806;51.554;5.704;2024-03-25T08:25:28;22.70;;;12.23;;
50495;SDS011;38806;51.554;5.704;2024-03-25T08:27:28;24.67;;;14.13;;
50495;SDS011;38806;51.554;5.704;2024-03-25T08:29:28;23.15;;;13.65;;
50495;SDS011;38806;51.554;5.704;2024-03-25T08:31:28;18.88;;;12.20;;
50495;SDS011;38806;51.554;5.704;2024-03-25T08:33:29;21.23;;;11.20;;
50495;SDS011;38806;51.554;5.704;2024-03-25T08:35:29;28.77;;;11.85;;
50495;SDS011;38806;51.554;5.704;2024-03-25T08:37:29;24.65;;;12.25;;
50495;SDS011;38806;51.554;5.704;2024-03-25T08:39:29;22.35;;;11.38;;
50495;SDS011;38806;51.554;5.704;2024-03-25T08:41:29;20.67;;;10.43;;
50495;SDS011;38806;51.554;5.704;2024-03-25T08:43:30;19.20;;;10.02;;
50495;SDS011;38806;51.554;5.704;2024-03-25T08:45:30;21.13;;;9.53;;
50495;SDS011;38806;51.554;5.704;2024-03-25T08:47:30;18.70;;;8.48;;
50495;SDS011;38806;51.554;5.704;2024-03-25T08:49:30;16.90;;;8.70;;
50495;SDS011;38806;51.554;5.704;2024-03-25T08:51:30;21.17;;;9.30;;
50495;SDS011;38806;51.554;5.704;2024-03-25T08:53:30;18.13;;;8.70;;
50495;SDS011;38806;51.554;5.704;2024-03-25T08:55:31;19.38;;;9.05;;
50495;SDS011;38806;51.554;5.704;2024-03-25T08:57:31;21.27;;;10.73;;
50495;SDS011;38806;51.554;5.704;2024-03-25T08:59:31;15.55;;;8.50;;
50495;SDS011;38806;51.554;5.704;2024-03-25T09:01:31;20.07;;;9.37;;
50495;SDS011;38806;51.554;5.704;2024-03-25T09:03:31;16.27;;;8.80;;
50495;SDS011;38806;51.554;5.704;2024-03-25T09:05:33;22.27;;;10.57;;
50495;SDS011;38806;51.554;5.704;2024-03-25T09:07:34;16.40;;;8.60;;
50495;SDS011;38806;51.554;5.704;2024-03-25T09:09:34;18.37;;;9.93;;
50495;SDS011;38806;51.554;5.704;2024-03-25T09:11:53;22.25;;;9.27;;
50495;SDS011;38806;51.554;5.704;2024-03-25T09:13:54;16.42;;;9.60;;
50495;SDS011;38806;51.554;5.704;2024-03-25T09:15:54;15.20;;;8.80;;
50495;SDS011;38806;51.554;5.704;2024-03-25T09:17:54;24.37;;;10.50;;
50495;SDS011;38806;51.554;5.704;2024-03-25T09:19:54;21.30;;;9.73;;
50495;SDS011;38806;51.554;5.704;2024-03-25T09:21:55;18.90;;;9.73;;
50495;SDS011;38806;51.554;5.704;2024-03-25T09:23:55;21.33;;;9.33;;
50495;SDS011;38806;51.554;5.704;2024-03-25T09:25:57;17.63;;;7.65;;
50495;SDS011;38806;51.554;5.704;2024-03-25T09:27:57;20.90;;;8.50;;
50495;SDS011;38806;51.554;5.704;2024-03-25T09:29:58;21.17;;;9.00;;
50495;SDS011;38806;51.554;5.704;2024-03-25T09:31:58;13.67;;;7.53;;
50495;SDS011;38806;51.554;5.704;2024-03-25T09:33:58;17.67;;;8.90;;
50495;SDS011;38806;51.554;5.704;2024-03-25T09:35:58;20.30;;;9.53;;
50495;SDS011;38806;51.554;5.704;2024-03-25T09:37:58;19.63;;;8.87;;
50495;SDS011;38806;51.554;5.704;2024-03-25T09:39:59;15.07;;;7.87;;
50495;SDS011;38806;51.554;5.704;2024-03-25T09:41:59;17.00;;;7.60;;
50495;SDS011;38806;51.554;5.704;2024-03-25T09:44:01;19.13;;;7.57;;
50495;SDS011;38806;51.554;5.704;2024-03-25T09:46:04;15.30;;;7.90;;
50495;SDS011;38806;51.554;5.704;2024-03-25T09:48:04;20.20;;;9.73;;
50495;SDS011;38806;51.554;5.704;2024-03-25T09:50:06;15.15;;;7.25;;
50495;SDS011;38806;51.554;5.704;2024-03-25T09:52:08;11.68;;;5.55;;
50495;SDS011;38806;51.554;5.704;2024-03-25T09:54:08;14.00;;;6.30;;
50495;SDS011;38806;51.554;5.704;2024-03-25T09:56:08;18.52;;;6.07;;
50495;SDS011;38806;51.554;5.704;2024-03-25T09:58:09;17.50;;;7.50;;
50495;SDS011;38806;51.554;5.704;2024-03-25T10:00:10;18.05;;;8.95;;
50495;SDS011;38806;51.554;5.704;2024-03-25T10:02:11;11.75;;;7.03;;
50495;SDS011;38806;51.554;5.704;2024-03-25T10:04:11;13.68;;;8.43;;
50495;SDS011;38806;51.554;5.704;2024-03-25T10:06:12;16.17;;;7.05;;
50495;SDS011;38806;51.554;5.704;2024-03-25T10:08:13;15.65;;;7.22;;
50495;SDS011;38806;51.554;5.704;2024-03-25T10:10:13;13.90;;;6.03;;
50495;SDS011;38806;51.554;5.704;2024-03-25T10:12:13;14.00;;;5.93;;
50495;SDS011;38806;51.554;5.704;2024-03-25T10:14:14;13.33;;;6.87;;
50495;SDS011;38806;51.554;5.704;2024-03-25T10:16:15;12.85;;;6.80;;
50495;SDS011;38806;51.554;5.704;2024-03-25T10:18:16;21.42;;;7.93;;
50495;SDS011;38806;51.554;5.704;2024-03-25T10:20:17;14.18;;;7.85;;
50495;SDS011;38806;51.554;5.704;2024-03-25T10:22:17;14.65;;;8.23;;
50495;SDS011;38806;51.554;5.704;2024-03-25T10:24:17;12.87;;;6.13;;
50495;SDS011;38806;51.554;5.704;2024-03-25T10:26:27;14.60;;;6.77;;
50495;SDS011;38806;51.554;5.704;2024-03-25T10:28:27;13.65;;;7.43;;
50495;SDS011;38806;51.554;5.704;2024-03-25T10:30:28;12.38;;;5.63;;
50495;SDS011;38806;51.554;5.704;2024-03-25T10:32:29;14.38;;;8.25;;
50495;SDS011;38806;51.554;5.704;2024-03-25T10:34:29;9.32;;;6.25;;
50495;SDS011;38806;51.554;5.704;2024-03-25T10:36:30;16.25;;;6.25;;
50495;SDS011;38806;51.554;5.704;2024-03-25T10:38:30;20.10;;;7.13;;
50495;SDS011;38806;51.554;5.704;2024-03-25T10:40:34;14.10;;;5.93;;
50495;SDS011;38806;51.554;5.704;2024-03-25T10:42:35;16.98;;;6.63;;
50495;SDS011;38806;51.554;5.704;2024-03-25T10:44:38;11.50;;;7.30;;
50495;SDS011;38806;51.554;5.704;2024-03-25T10:46:39;12.18;;;5.60;;
50495;SDS011;38806;51.554;5.704;2024-03-25T10:48:39;11.95;;;4.82;;
50495;SDS011;38806;51.554;5.704;2024-03-25T10:50:40;9.43;;;4.95;;
50495;SDS011;38806;51.554;5.704;2024-03-25T10:52:42;9.02;;;4.05;;
50495;SDS011;38806;51.554;5.704;2024-03-25T10:54:43;6.65;;;3.60;;
50495;SDS011;38806;51.554;5.704;2024-03-25T10:56:44;10.07;;;4.10;;
50495;SDS011;38806;51.554;5.704;2024-03-25T10:58:45;11.25;;;4.97;;
50495;SDS011;38806;51.554;5.704;2024-03-25T11:00:50;12.63;;;6.88;;
50495;SDS011;38806;51.554;5.704;2024-03-25T11:02:51;11.15;;;6.65;;
50495;SDS011;38806;51.554;5.704;2024-03-25T11:04:53;16.38;;;6.45;;
50495;SDS011;38806;51.554;5.704;2024-03-25T11:07:06;19.92;;;8.25;;
50495;SDS011;38806;51.554;5.704;2024-03-25T11:09:06;15.10;;;7.10;;
50495;SDS011;38806;51.554;5.704;2024-03-25T11:11:07;12.45;;;6.80;;
50495;SDS011;38806;51.554;5.704;2024-03-25T11:13:13;11.32;;;5.53;;
50495;SDS011;38806;51.554;5.704;2024-03-25T11:15:14;12.40;;;6.28;;
50495;SDS011;38806;51.554;5.704;2024-03-25T11:17:15;14.45;;;7.80;;
50495;SDS011;38806;51.554;5.704;2024-03-25T11:19:18;12.02;;;6.05;;
50495;SDS011;38806;51.554;5.704;2024-03-25T11:21:24;13.45;;;6.57;;
50495;SDS011;38806;51.554;5.704;2024-03-25T11:23:24;12.15;;;6.60;;
50495;SDS011;38806;51.554;5.704;2024-03-25T11:25:24;10.70;;;5.73;;
50495;SDS011;38806;51.554;5.704;2024-03-25T11:27:26;12.07;;;5.53;;
50495;SDS011;38806;51.554;5.704;2024-03-25T11:29:26;14.20;;;6.68;;
50495;SDS011;38806;51.554;5.704;2024-03-25T11:31:26;10.40;;;6.13;;
50495;SDS011;38806;51.554;5.704;2024-03-25T11:33:27;10.18;;;5.55;;
50495;SDS011;38806;51.554;5.704;2024-03-25T11:35:27;10.77;;;6.13;;
50495;SDS011;38806;51.554;5.704;2024-03-25T11:37:27;13.32;;;5.60;;
50495;SDS011;38806;51.554;5.704;2024-03-25T11:39:28;12.88;;;5.22;;
50495;SDS011;38806;51.554;5.704;2024-03-25T11:41:28;9.65;;;4.40;;
50495;SDS011;38806;51.554;5.704;2024-03-25T11:43:29;9.85;;;5.25;;
50495;SDS011;38806;51.554;5.704;2024-03-25T11:45:29;9.60;;;4.65;;
50495;SDS011;38806;51.554;5.704;2024-03-25T11:47:29;12.93;;;5.90;;
50495;SDS011;38806;51.554;5.704;2024-03-25T11:49:30;12.18;;;4.88;;
50495;SDS011;38806;51.554;5.704;2024-03-25T11:51:30;11.13;;;4.93;;
50495;SDS011;38806;51.554;5.704;2024-03-25T11:53:31;7.77;;;4.70;;